sensor_id;sensor_type;location;lat;lon;timestamp;pressure;altitude;pressure_sealevel;temperature;humidity
71964;BME280;59834;52.124;5.422;2023-07-02T00:02:15;100697.22;;;16.44;87.36
71964;BME280;59834;52.124;5.422;2023-07-02T00:04:46;100691.22;;;16.42;87.90
71964;BME280;59834;52.124;5.422;2023-07-02T00:07:13;100683.00;;;16.35;88.20
71964;BME280;59834;52.124;5.422;2023-07-02T00:09:41;100664.13;;;16.30;89.37
71964;BME280;59834;52.124;5.422;2023-07-02T00:12:08;100675.22;;;16.24;90.36
71964;BME280;59834;52.124;5.422;2023-07-02T00:14:35;100684.41;;;16.20;90.46
71964;BME280;59834;52.124;5.422;2023-07-02T00:17:01;100691.47;;;16.19;91.63
71964;BME280;59834;52.124;5.422;2023-07-02T00:19:28;100701.91;;;16.21;90.80
71964;BME280;59834;52.124;5.422;2023-07-02T00:21:55;100700.66;;;16.25;90.56
71964;BME280;59834;52.124;5.422;2023-07-02T00:24:22;100714.69;;;16.25;91.85
71964;BME280;59834;52.124;5.422;2023-07-02T00:26:49;100709.56;;;16.24;92.42
71964;BME280;59834;52.124;5.422;2023-07-02T00:29:15;100714.13;;;16.22;93.05
71964;BME280;59834;52.124;5.422;2023-07-02T00:31:42;100717.31;;;16.16;93.55
71964;BME280;59834;52.124;5.422;2023-07-02T00:34:08;100712.19;;;16.14;94.19
71964;BME280;59834;52.124;5.422;2023-07-02T00:36:35;100710.38;;;16.15;94.15
71964;BME280;59834;52.124;5.422;2023-07-02T00:39:02;100711.91;;;16.17;93.94
71964;BME280;59834;52.124;5.422;2023-07-02T00:41:30;100711.09;;;16.17;93.82
71964;BME280;59834;52.124;5.422;2023-07-02T00:43:56;100707.75;;;16.15;92.28
71964;BME280;59834;52.124;5.422;2023-07-02T00:46:23;100713.56;;;16.18;92.63
71964;BME280;59834;52.124;5.422;2023-07-02T00:48:53;100718.03;;;16.18;92.09
71964;BME280;59834;52.124;5.422;2023-07-02T00:51:25;100719.13;;;16.15;91.35
71964;BME280;59834;52.124;5.422;2023-07-02T00:53:54;100717.59;;;16.13;92.30
71964;BME280;59834;52.124;5.422;2023-07-02T00:56:22;100718.00;;;16.08;91.60
71964;BME280;59834;52.124;5.422;2023-07-02T00:58:51;100722.72;;;16.05;91.10
71964;BME280;59834;52.124;5.422;2023-07-02T01:01:19;100728.53;;;15.98;90.67
71964;BME280;59834;52.124;5.422;2023-07-02T01:06:27;100733.22;;;15.85;91.17
71964;BME280;59834;52.124;5.422;2023-07-02T01:08:56;100728.47;;;15.79;92.45
71964;BME280;59834;52.124;5.422;2023-07-02T01:14:02;100729.88;;;15.73;93.42
71964;BME280;59834;52.124;5.422;2023-07-02T01:16:31;100734.56;;;15.70;93.16
71964;BME280;59834;52.124;5.422;2023-07-02T01:19:05;100739.13;;;15.68;93.18
71964;BME280;59834;52.124;5.422;2023-07-02T01:21:37;100740.19;;;15.65;93.57
71964;BME280;59834;52.124;5.422;2023-07-02T01:24:05;100733.66;;;15.60;93.09
71964;BME280;59834;52.124;5.422;2023-07-02T01:26:32;100735.84;;;15.54;93.26
71964;BME280;59834;52.124;5.422;2023-07-02T01:29:21;100735.81;;;15.45;92.85
71964;BME280;59834;52.124;5.422;2023-07-02T01:31:47;100739.34;;;15.34;92.60
71964;BME280;59834;52.124;5.422;2023-07-02T01:34:14;100740.13;;;15.25;93.11
71964;BME280;59834;52.124;5.422;2023-07-02T01:36:41;100739.97;;;15.17;92.90
71964;BME280;59834;52.124;5.422;2023-07-02T01:39:08;100743.34;;;15.07;93.34
71964;BME280;59834;52.124;5.422;2023-07-02T01:41:45;100744.69;;;15.02;92.74
71964;BME280;59834;52.124;5.422;2023-07-02T01:44:11;100746.06;;;14.96;91.95
71964;BME280;59834;52.124;5.422;2023-07-02T01:46:38;100748.25;;;14.91;92.65
71964;BME280;59834;52.124;5.422;2023-07-02T01:49:05;100738.91;;;14.87;92.41
71964;BME280;59834;52.124;5.422;2023-07-02T01:51:33;100739.16;;;14.84;91.97
71964;BME280;59834;52.124;5.422;2023-07-02T01:54:00;100752.59;;;14.81;91.16
71964;BME280;59834;52.124;5.422;2023-07-02T01:56:27;100753.00;;;14.76;90.39
71964;BME280;59834;52.124;5.422;2023-07-02T01:58:54;100751.44;;;14.74;90.48
71964;BME280;59834;52.124;5.422;2023-07-02T02:01:21;100751.81;;;14.69;90.28
71964;BME280;59834;52.124;5.422;2023-07-02T02:03:47;100746.91;;;14.65;89.75
71964;BME280;59834;52.124;5.422;2023-07-02T02:06:14;100747.16;;;14.61;90.09
71964;BME280;59834;52.124;5.422;2023-07-02T02:08:40;100753.06;;;14.54;90.81
71964;BME280;59834;52.124;5.422;2023-07-02T02:11:07;100758.09;;;14.46;91.59
71964;BME280;59834;52.124;5.422;2023-07-02T02:13:33;100759.41;;;14.40;91.28
71964;BME280;59834;52.124;5.422;2023-07-02T02:16:00;100752.75;;;14.36;91.66
71964;BME280;59834;52.124;5.422;2023-07-02T02:18:26;100765.41;;;14.31;91.21
71964;BME280;59834;52.124;5.422;2023-07-02T02:20:53;100765.66;;;14.28;91.79
71964;BME280;59834;52.124;5.422;2023-07-02T02:23:20;100759.94;;;14.23;91.71
71964;BME280;59834;52.124;5.422;2023-07-02T02:25:46;100757.56;;;14.20;92.13
71964;BME280;59834;52.124;5.422;2023-07-02T02:28:13;100762.81;;;14.20;91.60
71964;BME280;59834;52.124;5.422;2023-07-02T02:30:39;100763.78;;;14.19;90.87
71964;BME280;59834;52.124;5.422;2023-07-02T02:33:06;100760.53;;;14.15;91.14
71964;BME280;59834;52.124;5.422;2023-07-02T02:35:32;100766.91;;;14.12;90.35
71964;BME280;59834;52.124;5.422;2023-07-02T02:38:02;100770.03;;;14.06;89.91
71964;BME280;59834;52.124;5.422;2023-07-02T02:40:29;100775.53;;;14.03;90.65
71964;BME280;59834;52.124;5.422;2023-07-02T02:42:55;100776.72;;;13.99;90.69
71964;BME280;59834;52.124;5.422;2023-07-02T02:45:22;100776.84;;;13.98;90.26
71964;BME280;59834;52.124;5.422;2023-07-02T02:47:49;100775.31;;;13.95;90.14
71964;BME280;59834;52.124;5.422;2023-07-02T02:50:15;100777.44;;;13.90;89.89
71964;BME280;59834;52.124;5.422;2023-07-02T02:52:42;100777.91;;;13.84;89.95
71964;BME280;59834;52.124;5.422;2023-07-02T02:55:09;100783.31;;;13.82;90.27
71964;BME280;59834;52.124;5.422;2023-07-02T02:57:37;100771.09;;;13.81;91.01
71964;BME280;59834;52.124;5.422;2023-07-02T03:00:04;100778.16;;;13.81;91.06
71964;BME280;59834;52.124;5.422;2023-07-02T03:02:31;100781.75;;;13.80;89.95
71964;BME280;59834;52.124;5.422;2023-07-02T03:04:58;100787.16;;;13.78;90.95
71964;BME280;59834;52.124;5.422;2023-07-02T03:07:29;100780.56;;;13.73;91.73
71964;BME280;59834;52.124;5.422;2023-07-02T03:09:55;100792.03;;;13.72;91.65
71964;BME280;59834;52.124;5.422;2023-07-02T03:12:22;100789.28;;;13.73;91.52
71964;BME280;59834;52.124;5.422;2023-07-02T03:14:52;100789.88;;;13.77;90.43
71964;BME280;59834;52.124;5.422;2023-07-02T03:17:21;100790.38;;;13.82;90.68
71964;BME280;59834;52.124;5.422;2023-07-02T03:19:48;100793.09;;;13.80;90.57
71964;BME280;59834;52.124;5.422;2023-07-02T03:22:14;100797.78;;;13.77;90.69
71964;BME280;59834;52.124;5.422;2023-07-02T03:24:41;100797.31;;;13.72;90.44
71964;BME280;59834;52.124;5.422;2023-07-02T03:27:08;100792.16;;;13.70;90.58
71964;BME280;59834;52.124;5.422;2023-07-02T03:29:35;100807.81;;;13.72;90.38
71964;BME280;59834;52.124;5.422;2023-07-02T03:32:02;100797.41;;;13.70;90.51
71964;BME280;59834;52.124;5.422;2023-07-02T03:34:29;100798.59;;;13.66;89.89
71964;BME280;59834;52.124;5.422;2023-07-02T03:36:55;100809.22;;;13.64;91.01
71964;BME280;59834;52.124;5.422;2023-07-02T03:39:22;100802.91;;;13.56;90.91
71964;BME280;59834;52.124;5.422;2023-07-02T03:41:49;100804.09;;;13.52;91.38
71964;BME280;59834;52.124;5.422;2023-07-02T03:44:16;100807.88;;;13.48;92.24
71964;BME280;59834;52.124;5.422;2023-07-02T03:46:43;100806.81;;;13.39;91.71
71964;BME280;59834;52.124;5.422;2023-07-02T03:49:10;100810.84;;;13.32;92.63
71964;BME280;59834;52.124;5.422;2023-07-02T03:51:36;100818.84;;;13.30;92.89
71964;BME280;59834;52.124;5.422;2023-07-02T03:54:03;100809.75;;;13.34;92.88
71964;BME280;59834;52.124;5.422;2023-07-02T03:56:29;100819.50;;;13.45;92.94
71964;BME280;59834;52.124;5.422;2023-07-02T03:58:56;100828.72;;;13.62;91.90
71964;BME280;59834;52.124;5.422;2023-07-02T04:01:23;100820.72;;;13.75;91.36
71964;BME280;59834;52.124;5.422;2023-07-02T04:03:51;100817.16;;;13.87;91.15
71964;BME280;59834;52.124;5.422;2023-07-02T04:06:18;100820.59;;;13.87;90.15
71964;BME280;59834;52.124;5.422;2023-07-02T04:08:45;100823.84;;;13.91;90.43
71964;BME280;59834;52.124;5.422;2023-07-02T04:11:12;100826.50;;;14.02;89.14
71964;BME280;59834;52.124;5.422;2023-07-02T04:13:39;100827.31;;;14.25;87.53
71964;BME280;59834;52.124;5.422;2023-07-02T04:16:06;100825.13;;;14.96;85.62
71964;BME280;59834;52.124;5.422;2023-07-02T04:18:33;100818.81;;;15.92;80.64
71964;BME280;59834;52.124;5.422;2023-07-02T04:21:01;100823.19;;;16.63;76.83
71964;BME280;59834;52.124;5.422;2023-07-02T04:23:28;100830.38;;;17.20;74.22
71964;BME280;59834;52.124;5.422;2023-07-02T04:25:55;100839.88;;;17.80;70.86
71964;BME280;59834;52.124;5.422;2023-07-02T04:28:41;100837.81;;;18.38;68.89
71964;BME280;59834;52.124;5.422;2023-07-02T04:31:08;100833.13;;;18.50;67.52
71964;BME280;59834;52.124;5.422;2023-07-02T04:33:34;100838.53;;;18.58;66.60
71964;BME280;59834;52.124;5.422;2023-07-02T04:36:03;100839.22;;;18.88;66.64
71964;BME280;59834;52.124;5.422;2023-07-02T04:38:30;100840.03;;;19.06;64.83
71964;BME280;59834;52.124;5.422;2023-07-02T04:40:57;100840.34;;;19.47;62.99
71964;BME280;59834;52.124;5.422;2023-07-02T04:43:27;100838.47;;;19.84;61.51
71964;BME280;59834;52.124;5.422;2023-07-02T04:45:57;100845.69;;;20.42;60.43
71964;BME280;59834;52.124;5.422;2023-07-02T04:48:24;100837.16;;;20.73;58.24
71964;BME280;59834;52.124;5.422;2023-07-02T04:50:51;100837.00;;;20.74;58.48
71964;BME280;59834;52.124;5.422;2023-07-02T04:53:17;100840.84;;;21.04;57.26
71964;BME280;59834;52.124;5.422;2023-07-02T04:55:44;100832.53;;;21.24;56.64
71964;BME280;59834;52.124;5.422;2023-07-02T04:58:11;100844.84;;;21.65;54.63
71964;BME280;59834;52.124;5.422;2023-07-02T05:00:37;100843.78;;;21.83;54.21
71964;BME280;59834;52.124;5.422;2023-07-02T05:03:04;100839.28;;;21.92;53.26
71964;BME280;59834;52.124;5.422;2023-07-02T05:05:31;100849.56;;;22.03;53.77
71964;BME280;59834;52.124;5.422;2023-07-02T05:07:57;100849.47;;;22.35;52.93
71964;BME280;59834;52.124;5.422;2023-07-02T05:10:24;100848.22;;;22.54;52.87
71964;BME280;59834;52.124;5.422;2023-07-02T05:12:51;100849.56;;;22.81;51.69
71964;BME280;59834;52.124;5.422;2023-07-02T05:15:17;100853.03;;;22.82;51.46
71964;BME280;59834;52.124;5.422;2023-07-02T05:17:44;100842.59;;;23.41;50.53
71964;BME280;59834;52.124;5.422;2023-07-02T05:20:11;100849.44;;;23.59;49.08
71964;BME280;59834;52.124;5.422;2023-07-02T05:22:37;100854.13;;;23.57;49.11
71964;BME280;59834;52.124;5.422;2023-07-02T05:25:04;100852.72;;;23.46;48.96
71964;BME280;59834;52.124;5.422;2023-07-02T05:27:31;100855.63;;;23.59;49.24
71964;BME280;59834;52.124;5.422;2023-07-02T05:29:58;100850.97;;;23.38;49.72
71964;BME280;59834;52.124;5.422;2023-07-02T05:32:24;100853.94;;;23.20;49.56
71964;BME280;59834;52.124;5.422;2023-07-02T05:34:51;100853.84;;;23.14;50.50
71964;BME280;59834;52.124;5.422;2023-07-02T05:37:19;100864.22;;;23.32;50.17
71964;BME280;59834;52.124;5.422;2023-07-02T05:39:46;100861.63;;;23.61;49.25
71964;BME280;59834;52.124;5.422;2023-07-02T05:42:12;100867.47;;;23.57;49.33
71964;BME280;59834;52.124;5.422;2023-07-02T05:44:39;100872.06;;;23.71;48.97
71964;BME280;59834;52.124;5.422;2023-07-02T05:47:05;100865.25;;;23.83;48.80
71964;BME280;59834;52.124;5.422;2023-07-02T05:49:32;100862.75;;;23.96;48.28
71964;BME280;59834;52.124;5.422;2023-07-02T05:52:02;100870.59;;;24.13;48.06
71964;BME280;59834;52.124;5.422;2023-07-02T05:54:28;100869.03;;;24.18;47.14
71964;BME280;59834;52.124;5.422;2023-07-02T05:56:55;100874.38;;;23.89;47.58
71964;BME280;59834;52.124;5.422;2023-07-02T05:59:21;100874.00;;;23.77;48.50
71964;BME280;59834;52.124;5.422;2023-07-02T06:01:48;100872.84;;;23.94;48.16
71964;BME280;59834;52.124;5.422;2023-07-02T06:04:14;100875.59;;;24.16;47.95
71964;BME280;59834;52.124;5.422;2023-07-02T06:06:41;100871.69;;;24.04;47.76
71964;BME280;59834;52.124;5.422;2023-07-02T06:09:08;100884.19;;;23.59;48.39
71964;BME280;59834;52.124;5.422;2023-07-02T06:11:34;100885.69;;;23.76;48.60
71964;BME280;59834;52.124;5.422;2023-07-02T06:14:01;100879.69;;;23.74;48.77
71964;BME280;59834;52.124;5.422;2023-07-02T06:16:28;100882.94;;;23.84;47.68
71964;BME280;59834;52.124;5.422;2023-07-02T06:18:54;100882.03;;;23.92;47.73
71964;BME280;59834;52.124;5.422;2023-07-02T06:21:22;100891.34;;;23.96;47.43
71964;BME280;59834;52.124;5.422;2023-07-02T06:23:48;100891.50;;;23.80;48.23
71964;BME280;59834;52.124;5.422;2023-07-02T06:26:15;100891.81;;;23.85;47.75
71964;BME280;59834;52.124;5.422;2023-07-02T06:28:42;100905.22;;;22.53;50.15
71964;BME280;59834;52.124;5.422;2023-07-02T06:31:08;100901.69;;;22.22;50.89
71964;BME280;59834;52.124;5.422;2023-07-02T06:33:39;100900.03;;;22.21;51.66
71964;BME280;59834;52.124;5.422;2023-07-02T06:36:06;100909.94;;;22.43;50.94
71964;BME280;59834;52.124;5.422;2023-07-02T06:38:33;100896.28;;;21.58;53.18
71964;BME280;59834;52.124;5.422;2023-07-02T06:40:59;100906.41;;;20.55;55.60
71964;BME280;59834;52.124;5.422;2023-07-02T06:43:25;100907.50;;;19.84;57.54
71964;BME280;59834;52.124;5.422;2023-07-02T06:45:52;100913.41;;;19.34;59.59
71964;BME280;59834;52.124;5.422;2023-07-02T06:48:18;100911.34;;;18.92;59.00
71964;BME280;59834;52.124;5.422;2023-07-02T06:50:47;100919.84;;;19.13;59.09
71964;BME280;59834;52.124;5.422;2023-07-02T06:53:15;100932.38;;;19.39;58.08
71964;BME280;59834;52.124;5.422;2023-07-02T06:55:41;100925.19;;;21.12;55.17
71964;BME280;59834;52.124;5.422;2023-07-02T06:58:08;100924.72;;;21.25;53.46
71964;BME280;59834;52.124;5.422;2023-07-02T07:00:35;100927.72;;;21.30;54.00
71964;BME280;59834;52.124;5.422;2023-07-02T07:03:03;100940.72;;;21.65;52.88
71964;BME280;59834;52.124;5.422;2023-07-02T07:05:30;100934.78;;;20.88;53.95
71964;BME280;59834;52.124;5.422;2023-07-02T07:07:59;100934.34;;;21.17;53.23
71964;BME280;59834;52.124;5.422;2023-07-02T07:10:27;100936.06;;;21.84;51.19
71964;BME280;59834;52.124;5.422;2023-07-02T07:12:54;100938.22;;;22.61;48.82
71964;BME280;59834;52.124;5.422;2023-07-02T07:15:20;100932.84;;;22.69;48.97
71964;BME280;59834;52.124;5.422;2023-07-02T07:17:47;100944.44;;;22.84;45.99
71964;BME280;59834;52.124;5.422;2023-07-02T07:20:14;100947.59;;;22.48;47.67
71964;BME280;59834;52.124;5.422;2023-07-02T07:22:40;100952.88;;;21.52;49.12
71964;BME280;59834;52.124;5.422;2023-07-02T07:25:07;100953.59;;;20.95;51.65
71964;BME280;59834;52.124;5.422;2023-07-02T07:27:34;100951.34;;;20.66;52.01
71964;BME280;59834;52.124;5.422;2023-07-02T07:30:01;100965.22;;;20.52;53.15
71964;BME280;59834;52.124;5.422;2023-07-02T07:32:28;100961.81;;;20.67;51.32
71964;BME280;59834;52.124;5.422;2023-07-02T07:34:54;100966.22;;;20.51;51.67
71964;BME280;59834;52.124;5.422;2023-07-02T07:37:20;100972.72;;;20.04;52.80
71964;BME280;59834;52.124;5.422;2023-07-02T07:39:47;100982.25;;;19.89;53.33
71964;BME280;59834;52.124;5.422;2023-07-02T07:42:14;100985.81;;;20.23;53.75
71964;BME280;59834;52.124;5.422;2023-07-02T07:44:45;100972.66;;;20.48;52.33
71964;BME280;59834;52.124;5.422;2023-07-02T07:47:12;100973.06;;;20.53;52.13
71964;BME280;59834;52.124;5.422;2023-07-02T07:49:39;100978.06;;;20.56;51.07
71964;BME280;59834;52.124;5.422;2023-07-02T07:52:06;100979.28;;;20.18;51.40
71964;BME280;59834;52.124;5.422;2023-07-02T07:54:33;100975.88;;;20.25;51.88
71964;BME280;59834;52.124;5.422;2023-07-02T07:57:04;100974.25;;;20.33;51.10
71964;BME280;59834;52.124;5.422;2023-07-02T07:59:30;100987.44;;;20.16;50.71
71964;BME280;59834;52.124;5.422;2023-07-02T08:01:57;100990.38;;;19.87;51.37
71964;BME280;59834;52.124;5.422;2023-07-02T08:04:23;100992.28;;;19.59;51.65
71964;BME280;59834;52.124;5.422;2023-07-02T08:06:50;100994.91;;;19.23;51.65
71964;BME280;59834;52.124;5.422;2023-07-02T08:09:17;100989.75;;;19.40;51.81
71964;BME280;59834;52.124;5.422;2023-07-02T08:11:43;100983.09;;;19.71;51.21
71964;BME280;59834;52.124;5.422;2023-07-02T08:14:12;100990.66;;;20.02;50.51
71964;BME280;59834;52.124;5.422;2023-07-02T08:16:38;100982.69;;;20.02;49.03
71964;BME280;59834;52.124;5.422;2023-07-02T08:19:05;100989.16;;;20.25;51.19
71964;BME280;59834;52.124;5.422;2023-07-02T08:21:31;100987.53;;;20.33;47.45
71964;BME280;59834;52.124;5.422;2023-07-02T08:23:58;100982.00;;;20.00;48.57
71964;BME280;59834;52.124;5.422;2023-07-02T08:26:25;100999.34;;;19.68;49.66
71964;BME280;59834;52.124;5.422;2023-07-02T08:28:51;101000.38;;;19.58;50.52
71964;BME280;59834;52.124;5.422;2023-07-02T08:31:18;100989.78;;;20.19;48.89
71964;BME280;59834;52.124;5.422;2023-07-02T08:33:44;101003.63;;;20.05;48.58
71964;BME280;59834;52.124;5.422;2023-07-02T08:36:11;101001.16;;;20.30;49.13
71964;BME280;59834;52.124;5.422;2023-07-02T08:38:40;101012.84;;;19.93;48.22
71964;BME280;59834;52.124;5.422;2023-07-02T08:41:08;100995.03;;;19.67;49.19
71964;BME280;59834;52.124;5.422;2023-07-02T08:43:35;101015.94;;;19.52;49.50
71964;BME280;59834;52.124;5.422;2023-07-02T08:46:02;101012.78;;;19.21;49.77
71964;BME280;59834;52.124;5.422;2023-07-02T08:48:28;101028.28;;;19.44;49.46
71964;BME280;59834;52.124;5.422;2023-07-02T08:50:56;101018.72;;;19.33;48.23
71964;BME280;59834;52.124;5.422;2023-07-02T08:53:22;101029.94;;;19.45;48.91
71964;BME280;59834;52.124;5.422;2023-07-02T08:55:56;101024.31;;;19.75;47.86
71964;BME280;59834;52.124;5.422;2023-07-02T08:58:22;101028.19;;;19.63;49.48
71964;BME280;59834;52.124;5.422;2023-07-02T09:01:12;101023.91;;;19.88;49.36
71964;BME280;59834;52.124;5.422;2023-07-02T09:03:40;101021.97;;;20.16;47.69
71964;BME280;59834;52.124;5.422;2023-07-02T09:06:09;101013.22;;;19.80;48.20
71964;BME280;59834;52.124;5.422;2023-07-02T09:08:37;101018.91;;;19.67;48.25
71964;BME280;59834;52.124;5.422;2023-07-02T09:13:44;101031.19;;;19.50;49.21
71964;BME280;59834;52.124;5.422;2023-07-02T09:16:28;101028.69;;;19.49;49.22
71964;BME280;59834;52.124;5.422;2023-07-02T09:19:13;101039.31;;;19.21;49.96
71964;BME280;59834;52.124;5.422;2023-07-02T09:21:47;101036.19;;;19.36;50.75
71964;BME280;59834;52.124;5.422;2023-07-02T09:24:23;101029.75;;;20.10;48.50
71964;BME280;59834;52.124;5.422;2023-07-02T09:26:52;101026.91;;;20.55;47.11
71964;BME280;59834;52.124;5.422;2023-07-02T09:29:23;101017.25;;;20.88;46.30
71964;BME280;59834;52.124;5.422;2023-07-02T09:31:50;101030.06;;;20.59;44.85
71964;BME280;59834;52.124;5.422;2023-07-02T09:34:36;101017.53;;;20.77;44.15
71964;BME280;59834;52.124;5.422;2023-07-02T09:37:04;101019.06;;;20.80;43.40
71964;BME280;59834;52.124;5.422;2023-07-02T09:39:33;101011.66;;;21.00;43.34
71964;BME280;59834;52.124;5.422;2023-07-02T09:42:01;101015.47;;;21.05;43.48
71964;BME280;59834;52.124;5.422;2023-07-02T09:44:30;101020.00;;;20.70;41.77
71964;BME280;59834;52.124;5.422;2023-07-02T09:47:07;101022.66;;;20.44;43.05
71964;BME280;59834;52.124;5.422;2023-07-02T09:49:36;101024.53;;;20.00;42.64
71964;BME280;59834;52.124;5.422;2023-07-02T09:52:06;101017.75;;;20.32;43.43
71964;BME280;59834;52.124;5.422;2023-07-02T09:54:32;101021.53;;;20.73;43.09
71964;BME280;59834;52.124;5.422;2023-07-02T09:57:00;101016.75;;;20.85;42.51
71964;BME280;59834;52.124;5.422;2023-07-02T09:59:27;101034.41;;;20.94;40.55
71964;BME280;59834;52.124;5.422;2023-07-02T10:01:54;101031.69;;;20.52;40.27
71964;BME280;59834;52.124;5.422;2023-07-02T10:04:21;101027.09;;;20.36;41.09
71964;BME280;59834;52.124;5.422;2023-07-02T10:06:53;101024.72;;;20.51;41.27
71964;BME280;59834;52.124;5.422;2023-07-02T10:09:25;101032.38;;;20.88;40.87
71964;BME280;59834;52.124;5.422;2023-07-02T10:12:00;101023.56;;;21.30;39.81
71964;BME280;59834;52.124;5.422;2023-07-02T10:14:27;101029.50;;;21.15;40.25
71964;BME280;59834;52.124;5.422;2023-07-02T10:16:55;101031.00;;;20.76;40.02
71964;BME280;59834;52.124;5.422;2023-07-02T10:19:22;101023.59;;;20.61;39.40
71964;BME280;59834;52.124;5.422;2023-07-02T10:22:02;101044.28;;;20.23;41.73
71964;BME280;59834;52.124;5.422;2023-07-02T10:24:29;101034.88;;;20.55;39.87
71964;BME280;59834;52.124;5.422;2023-07-02T10:27:00;101045.22;;;20.40;39.19
71964;BME280;59834;52.124;5.422;2023-07-02T10:29:28;101047.94;;;20.22;39.62
71964;BME280;59834;52.124;5.422;2023-07-02T10:31:56;101045.09;;;20.68;40.25
71964;BME280;59834;52.124;5.422;2023-07-02T10:34:33;101051.75;;;21.06;40.75
71964;BME280;59834;52.124;5.422;2023-07-02T10:37:01;101053.50;;;21.32;38.60
71964;BME280;59834;52.124;5.422;2023-07-02T10:39:29;101045.22;;;21.35;39.29
71964;BME280;59834;52.124;5.422;2023-07-02T10:42:06;101051.91;;;21.47;39.71
71964;BME280;59834;52.124;5.422;2023-07-02T10:44:34;101049.09;;;21.06;38.95
71964;BME280;59834;52.124;5.422;2023-07-02T10:47:03;101048.44;;;21.12;39.05
71964;BME280;59834;52.124;5.422;2023-07-02T10:49:31;101053.34;;;21.33;39.83
71964;BME280;59834;52.124;5.422;2023-07-02T10:51:59;101047.28;;;22.06;39.17
71964;BME280;59834;52.124;5.422;2023-07-02T10:54:27;101049.97;;;22.15;38.88
71964;BME280;59834;52.124;5.422;2023-07-02T10:57:04;101056.28;;;21.89;40.96
71964;BME280;59834;52.124;5.422;2023-07-02T10:59:31;101046.94;;;22.09;40.91
71964;BME280;59834;52.124;5.422;2023-07-02T11:01:57;101045.94;;;21.86;41.24
71964;BME280;59834;52.124;5.422;2023-07-02T11:04:31;101063.56;;;21.54;40.27
71964;BME280;59834;52.124;5.422;2023-07-02T11:06:58;101060.84;;;21.30;41.22
71964;BME280;59834;52.124;5.422;2023-07-02T11:09:25;101066.44;;;21.18;42.12
71964;BME280;59834;52.124;5.422;2023-07-02T11:11:56;101075.44;;;21.26;41.49
71964;BME280;59834;52.124;5.422;2023-07-02T11:14:30;101065.84;;;20.99;40.48
71964;BME280;59834;52.124;5.422;2023-07-02T11:16:58;101068.44;;;20.82;41.05
71964;BME280;59834;52.124;5.422;2023-07-02T11:19:25;101071.94;;;20.83;41.62
71964;BME280;59834;52.124;5.422;2023-07-02T11:21:56;101065.66;;;21.26;41.41
71964;BME280;59834;52.124;5.422;2023-07-02T11:24:35;101068.69;;;20.97;41.29
71964;BME280;59834;52.124;5.422;2023-07-02T11:27:04;101061.09;;;21.10;41.02
71964;BME280;59834;52.124;5.422;2023-07-02T11:29:33;101067.59;;;21.16;41.79
71964;BME280;59834;52.124;5.422;2023-07-02T11:32:10;101066.63;;;21.25;41.80
71964;BME280;59834;52.124;5.422;2023-07-02T11:34:38;101065.16;;;21.31;41.77
71964;BME280;59834;52.124;5.422;2023-07-02T11:37:05;101076.94;;;21.95;40.83
71964;BME280;59834;52.124;5.422;2023-07-02T11:39:32;101071.63;;;21.95;40.14
71964;BME280;59834;52.124;5.422;2023-07-02T11:41:59;101076.97;;;22.20;38.78
71964;BME280;59834;52.124;5.422;2023-07-02T11:44:25;101072.28;;;22.05;38.58
71964;BME280;59834;52.124;5.422;2023-07-02T11:46:52;101068.28;;;22.01;38.92
71964;BME280;59834;52.124;5.422;2023-07-02T11:49:19;101071.13;;;22.16;38.79
71964;BME280;59834;52.124;5.422;2023-07-02T11:51:45;101074.13;;;22.29;38.07
71964;BME280;59834;52.124;5.422;2023-07-02T11:54:15;101056.22;;;22.71;36.83
71964;BME280;59834;52.124;5.422;2023-07-02T11:56:42;101068.03;;;22.76;36.84
71964;BME280;59834;52.124;5.422;2023-07-02T11:59:09;101069.09;;;22.67;38.19
71964;BME280;59834;52.124;5.422;2023-07-02T12:01:36;101079.00;;;22.18;37.78
71964;BME280;59834;52.124;5.422;2023-07-02T12:04:03;101080.63;;;21.94;38.59
71964;BME280;59834;52.124;5.422;2023-07-02T12:06:30;101086.25;;;21.67;38.41
71964;BME280;59834;52.124;5.422;2023-07-02T12:08:56;101083.47;;;21.34;38.30
71964;BME280;59834;52.124;5.422;2023-07-02T12:11:23;101073.81;;;21.33;39.45
71964;BME280;59834;52.124;5.422;2023-07-02T12:13:49;101075.63;;;21.32;37.97
71964;BME280;59834;52.124;5.422;2023-07-02T12:16:16;101085.00;;;21.02;39.40
71964;BME280;59834;52.124;5.422;2023-07-02T12:18:42;101082.19;;;21.04;39.25
71964;BME280;59834;52.124;5.422;2023-07-02T12:21:10;101077.69;;;21.04;39.24
71964;BME280;59834;52.124;5.422;2023-07-02T12:23:37;101090.25;;;21.28;38.95
71964;BME280;59834;52.124;5.422;2023-07-02T12:26:04;101084.25;;;21.85;38.53
71964;BME280;59834;52.124;5.422;2023-07-02T12:28:30;101091.94;;;21.88;38.66
71964;BME280;59834;52.124;5.422;2023-07-02T12:30:57;101090.91;;;21.73;37.96
71964;BME280;59834;52.124;5.422;2023-07-02T12:33:23;101100.69;;;21.48;39.38
71964;BME280;59834;52.124;5.422;2023-07-02T12:35:50;101099.91;;;21.63;39.08
71964;BME280;59834;52.124;5.422;2023-07-02T12:38:17;101096.59;;;21.86;39.09
71964;BME280;59834;52.124;5.422;2023-07-02T12:40:43;101096.50;;;22.20;38.19
71964;BME280;59834;52.124;5.422;2023-07-02T12:43:10;101071.63;;;22.44;36.56
71964;BME280;59834;52.124;5.422;2023-07-02T12:45:36;101087.28;;;22.55;37.05
71964;BME280;59834;52.124;5.422;2023-07-02T12:48:03;101092.28;;;22.50;36.99
71964;BME280;59834;52.124;5.422;2023-07-02T12:50:31;101085.34;;;22.89;37.25
71964;BME280;59834;52.124;5.422;2023-07-02T12:52:58;101098.91;;;22.63;35.47
71964;BME280;59834;52.124;5.422;2023-07-02T12:55:24;101090.78;;;22.64;35.36
71964;BME280;59834;52.124;5.422;2023-07-02T12:57:51;101094.59;;;22.53;36.03
71964;BME280;59834;52.124;5.422;2023-07-02T13:00:17;101099.94;;;22.04;37.38
71964;BME280;59834;52.124;5.422;2023-07-02T13:02:44;101093.59;;;22.05;36.88